sensor_id;sensor_type;location;lat;lon;timestamp;P1;durP1;ratioP1;P2;durP2;ratioP2
4634;SDS011;2330;48.158;11.816;2023-06-19T00:00:29;9.23;;;8.43;;
4634;SDS011;2330;48.158;11.816;2023-06-19T00:02:57;14.27;;;8.93;;
4634;SDS011;2330;48.158;11.816;2023-06-19T00:05:24;9.13;;;8.23;;
4634;SDS011;2330;48.158;11.816;2023-06-19T00:07:51;11.23;;;8.80;;
4634;SDS011;2330;48.158;11.816;2023-06-19T00:10:18;8.40;;;7.60;;
4634;SDS011;2330;48.158;11.816;2023-06-19T00:12:46;8.60;;;7.80;;
4634;SDS011;2330;48.158;11.816;2023-06-19T00:15:13;8.63;;;6.90;;
4634;SDS011;2330;48.158;11.816;2023-06-19T00:17:40;10.37;;;9.37;;
4634;SDS011;2330;48.158;11.816;2023-06-19T00:20:07;9.30;;;8.50;;
4634;SDS011;2330;48.158;11.816;2023-06-19T00:22:35;12.80;;;8.97;;
4634;SDS011;2330;48.158;11.816;2023-06-19T00:25:02;9.13;;;8.27;;
4634;SDS011;2330;48.158;11.816;2023-06-19T00:27:29;10.33;;;8.40;;
4634;SDS011;2330;48.158;11.816;2023-06-19T00:29:56;9.07;;;8.20;;
4634;SDS011;2330;48.158;11.816;2023-06-19T00:32:28;11.67;;;8.50;;
4634;SDS011;2330;48.158;11.816;2023-06-19T00:34:55;8.30;;;7.60;;
4634;SDS011;2330;48.158;11.816;2023-06-19T00:37:23;9.33;;;8.03;;
4634;SDS011;2330;48.158;11.816;2023-06-19T00:39:49;12.07;;;8.40;;
4634;SDS011;2330;48.158;11.816;2023-06-19T00:42:16;8.40;;;7.60;;
4634;SDS011;2330;48.158;11.816;2023-06-19T00:44:43;9.33;;;8.43;;
4634;SDS011;2330;48.158;11.816;2023-06-19T00:47:10;8.30;;;7.60;;
4634;SDS011;2330;48.158;11.816;2023-06-19T00:49:37;8.90;;;8.00;;
4634;SDS011;2330;48.158;11.816;2023-06-19T00:52:04;8.83;;;8.03;;
4634;SDS011;2330;48.158;11.816;2023-06-19T00:54:31;10.60;;;7.67;;
4634;SDS011;2330;48.158;11.816;2023-06-19T00:56:59;8.30;;;7.50;;
4634;SDS011;2330;48.158;11.816;2023-06-19T00:59:26;9.93;;;8.47;;
4634;SDS011;2330;48.158;11.816;2023-06-19T01:01:53;8.03;;;7.30;;
4634;SDS011;2330;48.158;11.816;2023-06-19T01:04:20;9.50;;;8.60;;
4634;SDS011;2330;48.158;11.816;2023-06-19T01:06:57;8.50;;;7.80;;
4634;SDS011;2330;48.158;11.816;2023-06-19T01:09:41;9.50;;;8.60;;
4634;SDS011;2330;48.158;11.816;2023-06-19T01:12:20;11.30;;;7.63;;
4634;SDS011;2330;48.158;11.816;2023-06-19T01:14:56;8.20;;;7.50;;
4634;SDS011;2330;48.158;11.816;2023-06-19T01:17:28;8.80;;;8.00;;
4634;SDS011;2330;48.158;11.816;2023-06-19T01:19:55;9.53;;;7.10;;
4634;SDS011;2330;48.158;11.816;2023-06-19T01:22:32;9.97;;;8.17;;
4634;SDS011;2330;48.158;11.816;2023-06-19T01:24:59;8.50;;;7.80;;
4634;SDS011;2330;48.158;11.816;2023-06-19T01:27:26;9.90;;;8.70;;
4634;SDS011;2330;48.158;11.816;2023-06-19T01:29:57;8.77;;;7.83;;
4634;SDS011;2330;48.158;11.816;2023-06-19T01:32:29;8.10;;;7.40;;
4634;SDS011;2330;48.158;11.816;2023-06-19T01:35:03;9.50;;;7.73;;
4634;SDS011;2330;48.158;11.816;2023-06-19T01:37:34;8.10;;;7.30;;
4634;SDS011;2330;48.158;11.816;2023-06-19T01:40:02;8.50;;;7.60;;
4634;SDS011;2330;48.158;11.816;2023-06-19T01:42:32;8.93;;;8.00;;
4634;SDS011;2330;48.158;11.816;2023-06-19T01:45:00;9.17;;;8.37;;
4634;SDS011;2330;48.158;11.816;2023-06-19T01:47:29;8.77;;;7.87;;
4634;SDS011;2330;48.158;11.816;2023-06-19T01:49:56;8.20;;;7.50;;
4634;SDS011;2330;48.158;11.816;2023-06-19T01:52:23;8.23;;;7.53;;
4634;SDS011;2330;48.158;11.816;2023-06-19T01:54:51;8.93;;;8.03;;
4634;SDS011;2330;48.158;11.816;2023-06-19T01:57:17;9.97;;;8.43;;
4634;SDS011;2330;48.158;11.816;2023-06-19T01:59:45;9.20;;;8.40;;
4634;SDS011;2330;48.158;11.816;2023-06-19T02:02:11;9.87;;;8.03;;
4634;SDS011;2330;48.158;11.816;2023-06-19T02:04:38;9.67;;;8.13;;
4634;SDS011;2330;48.158;11.816;2023-06-19T02:07:05;8.63;;;7.83;;
4634;SDS011;2330;48.158;11.816;2023-06-19T02:09:32;9.90;;;9.00;;
4634;SDS011;2330;48.158;11.816;2023-06-19T02:11:59;9.17;;;8.30;;
4634;SDS011;2330;48.158;11.816;2023-06-19T02:14:26;9.03;;;8.23;;
4634;SDS011;2330;48.158;11.816;2023-06-19T02:16:52;9.90;;;8.53;;
4634;SDS011;2330;48.158;11.816;2023-06-19T02:19:19;9.03;;;8.23;;
4634;SDS011;2330;48.158;11.816;2023-06-19T02:21:46;8.83;;;8.13;;
4634;SDS011;2330;48.158;11.816;2023-06-19T02:24:13;8.63;;;7.83;;
4634;SDS011;2330;48.158;11.816;2023-06-19T02:26:40;9.60;;;8.70;;
4634;SDS011;2330;48.158;11.816;2023-06-19T02:29:06;14.20;;;9.50;;
4634;SDS011;2330;48.158;11.816;2023-06-19T02:31:33;12.37;;;8.50;;
4634;SDS011;2330;48.158;11.816;2023-06-19T02:34:00;10.63;;;9.27;;
4634;SDS011;2330;48.158;11.816;2023-06-19T02:36:27;12.97;;;8.03;;
4634;SDS011;2330;48.158;11.816;2023-06-19T02:38:54;11.60;;;8.50;;
4634;SDS011;2330;48.158;11.816;2023-06-19T02:41:21;13.00;;;8.10;;
4634;SDS011;2330;48.158;11.816;2023-06-19T02:43:48;10.37;;;9.30;;
4634;SDS011;2330;48.158;11.816;2023-06-19T02:46:16;12.77;;;9.07;;
4634;SDS011;2330;48.158;11.816;2023-06-19T02:48:42;10.30;;;9.40;;
4634;SDS011;2330;48.158;11.816;2023-06-19T02:51:09;9.20;;;8.40;;
4634;SDS011;2330;48.158;11.816;2023-06-19T02:53:36;9.63;;;8.80;;
4634;SDS011;2330;48.158;11.816;2023-06-19T02:56:03;11.53;;;8.70;;
4634;SDS011;2330;48.158;11.816;2023-06-19T02:58:30;17.50;;;8.87;;
4634;SDS011;2330;48.158;11.816;2023-06-19T03:00:57;9.57;;;8.57;;
4634;SDS011;2330;48.158;11.816;2023-06-19T03:03:24;9.93;;;9.03;;
4634;SDS011;2330;48.158;11.816;2023-06-19T03:05:52;8.63;;;7.73;;
4634;SDS011;2330;48.158;11.816;2023-06-19T03:08:18;11.23;;;9.60;;
4634;SDS011;2330;48.158;11.816;2023-06-19T03:10:45;9.13;;;8.20;;
4634;SDS011;2330;48.158;11.816;2023-06-19T03:13:13;9.43;;;8.53;;
4634;SDS011;2330;48.158;11.816;2023-06-19T03:15:40;13.33;;;8.50;;
4634;SDS011;2330;48.158;11.816;2023-06-19T03:18:07;17.20;;;9.50;;
4634;SDS011;2330;48.158;11.816;2023-06-19T03:20:35;11.00;;;8.00;;
4634;SDS011;2330;48.158;11.816;2023-06-19T03:23:02;9.13;;;8.33;;
4634;SDS011;2330;48.158;11.816;2023-06-19T03:25:29;9.10;;;8.30;;
4634;SDS011;2330;48.158;11.816;2023-06-19T03:28:01;10.13;;;8.90;;
4634;SDS011;2330;48.158;11.816;2023-06-19T03:30:37;9.63;;;8.73;;
4634;SDS011;2330;48.158;11.816;2023-06-19T03:33:04;12.60;;;8.10;;
4634;SDS011;2330;48.158;11.816;2023-06-19T03:35:31;10.40;;;9.30;;
4634;SDS011;2330;48.158;11.816;2023-06-19T03:37:57;9.87;;;8.37;;
4634;SDS011;2330;48.158;11.816;2023-06-19T03:40:24;9.67;;;8.40;;
4634;SDS011;2330;48.158;11.816;2023-06-19T03:42:51;9.30;;;7.60;;
4634;SDS011;2330;48.158;11.816;2023-06-19T03:45:18;9.93;;;9.03;;
4634;SDS011;2330;48.158;11.816;2023-06-19T03:47:45;9.20;;;8.40;;
4634;SDS011;2330;48.158;11.816;2023-06-19T03:50:12;8.43;;;7.60;;
4634;SDS011;2330;48.158;11.816;2023-06-19T03:52:47;8.77;;;7.97;;
4634;SDS011;2330;48.158;11.816;2023-06-19T03:55:17;9.90;;;8.90;;
4634;SDS011;2330;48.158;11.816;2023-06-19T03:57:44;9.63;;;8.50;;
4634;SDS011;2330;48.158;11.816;2023-06-19T04:00:11;10.97;;;9.83;;
4634;SDS011;2330;48.158;11.816;2023-06-19T04:02:39;9.90;;;9.00;;
4634;SDS011;2330;48.158;11.816;2023-06-19T04:05:07;9.47;;;8.67;;
4634;SDS011;2330;48.158;11.816;2023-06-19T04:07:34;9.67;;;8.37;;
4634;SDS011;2330;48.158;11.816;2023-06-19T04:10:03;11.67;;;8.77;;
4634;SDS011;2330;48.158;11.816;2023-06-19T04:12:44;9.90;;;8.73;;
4634;SDS011;2330;48.158;11.816;2023-06-19T04:15:11;9.00;;;8.20;;
4634;SDS011;2330;48.158;11.816;2023-06-19T04:17:38;9.50;;;8.43;;
4634;SDS011;2330;48.158;11.816;2023-06-19T04:20:05;9.57;;;8.67;;
4634;SDS011;2330;48.158;11.816;2023-06-19T04:22:46;9.70;;;8.80;;
4634;SDS011;2330;48.158;11.816;2023-06-19T04:25:12;9.03;;;8.23;;
4634;SDS011;2330;48.158;11.816;2023-06-19T04:27:40;13.00;;;9.07;;
4634;SDS011;2330;48.158;11.816;2023-06-19T04:30:07;8.67;;;7.97;;
4634;SDS011;2330;48.158;11.816;2023-06-19T04:32:34;10.40;;;9.07;;
4634;SDS011;2330;48.158;11.816;2023-06-19T04:35:02;12.47;;;10.00;;
4634;SDS011;2330;48.158;11.816;2023-06-19T04:37:29;9.70;;;8.80;;
4634;SDS011;2330;48.158;11.816;2023-06-19T04:39:55;9.40;;;8.53;;
4634;SDS011;2330;48.158;11.816;2023-06-19T04:42:22;9.00;;;8.20;;
4634;SDS011;2330;48.158;11.816;2023-06-19T04:44:49;9.57;;;8.77;;
4634;SDS011;2330;48.158;11.816;2023-06-19T04:47:17;11.83;;;9.60;;
4634;SDS011;2330;48.158;11.816;2023-06-19T04:49:46;10.73;;;9.50;;
4634;SDS011;2330;48.158;11.816;2023-06-19T04:52:13;9.30;;;8.33;;
4634;SDS011;2330;48.158;11.816;2023-06-19T04:54:40;8.77;;;7.97;;
4634;SDS011;2330;48.158;11.816;2023-06-19T04:57:07;10.83;;;8.77;;
4634;SDS011;2330;48.158;11.816;2023-06-19T04:59:34;9.80;;;8.80;;
4634;SDS011;2330;48.158;11.816;2023-06-19T05:02:01;15.80;;;9.50;;
4634;SDS011;2330;48.158;11.816;2023-06-19T05:04:28;10.40;;;9.30;;
4634;SDS011;2330;48.158;11.816;2023-06-19T05:06:59;12.50;;;9.37;;
4634;SDS011;2330;48.158;11.816;2023-06-19T05:09:26;10.83;;;9.33;;
4634;SDS011;2330;48.158;11.816;2023-06-19T05:11:53;8.33;;;7.53;;
4634;SDS011;2330;48.158;11.816;2023-06-19T05:14:20;10.57;;;9.40;;
4634;SDS011;2330;48.158;11.816;2023-06-19T05:16:46;9.90;;;8.93;;
4634;SDS011;2330;48.158;11.816;2023-06-19T05:19:13;11.43;;;8.27;;
4634;SDS011;2330;48.158;11.816;2023-06-19T05:21:40;12.30;;;9.13;;
4634;SDS011;2330;48.158;11.816;2023-06-19T05:24:09;10.10;;;9.10;;
4634;SDS011;2330;48.158;11.816;2023-06-19T05:26:36;17.23;;;8.83;;
4634;SDS011;2330;48.158;11.816;2023-06-19T05:29:03;11.70;;;9.20;;
4634;SDS011;2330;48.158;11.816;2023-06-19T05:31:30;21.37;;;9.57;;
4634;SDS011;2330;48.158;11.816;2023-06-19T05:33:57;15.73;;;9.77;;
4634;SDS011;2330;48.158;11.816;2023-06-19T05:36:25;9.67;;;8.77;;
4634;SDS011;2330;48.158;11.816;2023-06-19T05:38:52;12.20;;;8.63;;
4634;SDS011;2330;48.158;11.816;2023-06-19T05:41:19;16.17;;;9.50;;
4634;SDS011;2330;48.158;11.816;2023-06-19T05:43:46;12.37;;;9.43;;
4634;SDS011;2330;48.158;11.816;2023-06-19T05:46:13;10.27;;;9.30;;
4634;SDS011;2330;48.158;11.816;2023-06-19T05:48:40;11.50;;;8.13;;
4634;SDS011;2330;48.158;11.816;2023-06-19T05:51:07;14.93;;;8.93;;
4634;SDS011;2330;48.158;11.816;2023-06-19T05:53:34;12.63;;;9.27;;
4634;SDS011;2330;48.158;11.816;2023-06-19T05:56:01;15.63;;;9.60;;
4634;SDS011;2330;48.158;11.816;2023-06-19T05:58:27;11.50;;;9.93;;
4634;SDS011;2330;48.158;11.816;2023-06-19T06:00:54;9.47;;;8.47;;
4634;SDS011;2330;48.158;11.816;2023-06-19T06:03:24;12.33;;;8.87;;
4634;SDS011;2330;48.158;11.816;2023-06-19T06:05:51;24.23;;;10.10;;
4634;SDS011;2330;48.158;11.816;2023-06-19T06:08:18;11.50;;;9.17;;
4634;SDS011;2330;48.158;11.816;2023-06-19T06:10:46;18.50;;;9.03;;
4634;SDS011;2330;48.158;11.816;2023-06-19T06:13:13;26.07;;;9.40;;
4634;SDS011;2330;48.158;11.816;2023-06-19T06:15:40;16.77;;;8.63;;
4634;SDS011;2330;48.158;11.816;2023-06-19T06:18:06;10.77;;;8.43;;
4634;SDS011;2330;48.158;11.816;2023-06-19T06:20:33;9.50;;;8.43;;
4634;SDS011;2330;48.158;11.816;2023-06-19T06:23:00;15.60;;;9.23;;
4634;SDS011;2330;48.158;11.816;2023-06-19T06:25:27;18.97;;;9.17;;
4634;SDS011;2330;48.158;11.816;2023-06-19T06:27:54;15.13;;;7.67;;
4634;SDS011;2330;48.158;11.816;2023-06-19T06:30:22;11.80;;;8.10;;
4634;SDS011;2330;48.158;11.816;2023-06-19T06:32:50;9.30;;;8.50;;
4634;SDS011;2330;48.158;11.816;2023-06-19T06:35:17;9.87;;;8.20;;
4634;SDS011;2330;48.158;11.816;2023-06-19T06:37:44;11.70;;;8.20;;
4634;SDS011;2330;48.158;11.816;2023-06-19T06:40:12;12.80;;;8.70;;
4634;SDS011;2330;48.158;11.816;2023-06-19T06:42:40;18.73;;;9.03;;
4634;SDS011;2330;48.158;11.816;2023-06-19T06:45:06;13.80;;;8.13;;
4634;SDS011;2330;48.158;11.816;2023-06-19T06:47:34;15.90;;;9.00;;
4634;SDS011;2330;48.158;11.816;2023-06-19T06:50:02;13.23;;;8.87;;
4634;SDS011;2330;48.158;11.816;2023-06-19T06:52:29;28.20;;;8.40;;
4634;SDS011;2330;48.158;11.816;2023-06-19T06:54:57;14.63;;;8.00;;
4634;SDS011;2330;48.158;11.816;2023-06-19T06:57:24;12.90;;;7.40;;
4634;SDS011;2330;48.158;11.816;2023-06-19T06:59:51;18.13;;;9.30;;
4634;SDS011;2330;48.158;11.816;2023-06-19T07:02:18;18.60;;;8.90;;
4634;SDS011;2330;48.158;11.816;2023-06-19T07:04:45;10.20;;;8.30;;
4634;SDS011;2330;48.158;11.816;2023-06-19T07:07:12;11.93;;;8.90;;
4634;SDS011;2330;48.158;11.816;2023-06-19T07:09:39;10.20;;;8.63;;
4634;SDS011;2330;48.158;11.816;2023-06-19T07:12:06;11.73;;;9.30;;
4634;SDS011;2330;48.158;11.816;2023-06-19T07:14:33;8.57;;;7.77;;
4634;SDS011;2330;48.158;11.816;2023-06-19T07:17:00;8.50;;;7.60;;
4634;SDS011;2330;48.158;11.816;2023-06-19T07:19:27;17.93;;;8.30;;
4634;SDS011;2330;48.158;11.816;2023-06-19T07:21:56;9.47;;;8.37;;
4634;SDS011;2330;48.158;11.816;2023-06-19T07:24:22;12.30;;;8.60;;
4634;SDS011;2330;48.158;11.816;2023-06-19T07:26:50;17.53;;;10.13;;
4634;SDS011;2330;48.158;11.816;2023-06-19T07:29:17;14.30;;;7.30;;
4634;SDS011;2330;48.158;11.816;2023-06-19T07:31:43;14.87;;;8.30;;
4634;SDS011;2330;48.158;11.816;2023-06-19T07:34:11;9.63;;;8.10;;
4634;SDS011;2330;48.158;11.816;2023-06-19T07:36:38;9.80;;;7.87;;
4634;SDS011;2330;48.158;11.816;2023-06-19T07:39:05;9.77;;;8.80;;
4634;SDS011;2330;48.158;11.816;2023-06-19T07:41:32;10.10;;;7.77;;
4634;SDS011;2330;48.158;11.816;2023-06-19T07:43:59;11.60;;;7.83;;
4634;SDS011;2330;48.158;11.816;2023-06-19T07:46:26;8.77;;;7.27;;
4634;SDS011;2330;48.158;11.816;2023-06-19T07:48:53;9.10;;;7.57;;
4634;SDS011;2330;48.158;11.816;2023-06-19T07:51:20;10.90;;;7.13;;
4634;SDS011;2330;48.158;11.816;2023-06-19T07:53:47;14.57;;;7.50;;
4634;SDS011;2330;48.158;11.816;2023-06-19T07:56:14;8.50;;;6.67;;
4634;SDS011;2330;48.158;11.816;2023-06-19T07:58:41;9.57;;;6.87;;
4634;SDS011;2330;48.158;11.816;2023-06-19T08:01:08;29.43;;;7.60;;
4634;SDS011;2330;48.158;11.816;2023-06-19T08:03:35;16.10;;;8.17;;
4634;SDS011;2330;48.158;11.816;2023-06-19T08:06:02;14.60;;;7.37;;
4634;SDS011;2330;48.158;11.816;2023-06-19T08:08:29;13.17;;;6.17;;
4634;SDS011;2330;48.158;11.816;2023-06-19T08:10:57;8.90;;;6.60;;
4634;SDS011;2330;48.158;11.816;2023-06-19T08:13:24;6.97;;;5.33;;
4634;SDS011;2330;48.158;11.816;2023-06-19T08:15:50;5.87;;;5.27;;
4634;SDS011;2330;48.158;11.816;2023-06-19T08:18:17;6.10;;;5.20;;
4634;SDS011;2330;48.158;11.816;2023-06-19T08:20:44;7.33;;;5.70;;
4634;SDS011;2330;48.158;11.816;2023-06-19T08:23:11;11.73;;;5.60;;
4634;SDS011;2330;48.158;11.816;2023-06-19T08:25:38;15.57;;;5.40;;
4634;SDS011;2330;48.158;11.816;2023-06-19T08:28:05;9.80;;;4.83;;
4634;SDS011;2330;48.158;11.816;2023-06-19T08:30:32;5.27;;;4.50;;
4634;SDS011;2330;48.158;11.816;2023-06-19T08:32:59;10.70;;;5.00;;
4634;SDS011;2330;48.158;11.816;2023-06-19T08:35:26;7.50;;;4.60;;
4634;SDS011;2330;48.158;11.816;2023-06-19T08:37:53;6.47;;;4.83;;
4634;SDS011;2330;48.158;11.816;2023-06-19T08:40:21;8.97;;;4.90;;
4634;SDS011;2330;48.158;11.816;2023-06-19T08:42:48;19.60;;;5.77;;
4634;SDS011;2330;48.158;11.816;2023-06-19T08:45:16;5.50;;;4.67;;
4634;SDS011;2330;48.158;11.816;2023-06-19T08:47:45;7.20;;;4.07;;
4634;SDS011;2330;48.158;11.816;2023-06-19T08:50:15;5.77;;;5.20;;
4634;SDS011;2330;48.158;11.816;2023-06-19T08:52:42;15.33;;;6.07;;
4634;SDS011;2330;48.158;11.816;2023-06-19T08:55:09;5.20;;;4.13;;
4634;SDS011;2330;48.158;11.816;2023-06-19T08:57:39;5.00;;;4.10;;
4634;SDS011;2330;48.158;11.816;2023-06-19T09:00:07;11.67;;;5.20;;
4634;SDS011;2330;48.158;11.816;2023-06-19T09:02:37;4.80;;;4.40;;
4634;SDS011;2330;48.158;11.816;2023-06-19T09:05:10;12.87;;;4.70;;
4634;SDS011;2330;48.158;11.816;2023-06-19T09:07:38;6.60;;;5.23;;
4634;SDS011;2330;48.158;11.816;2023-06-19T09:10:12;5.87;;;5.27;;
4634;SDS011;2330;48.158;11.816;2023-06-19T09:12:41;6.50;;;5.23;;
4634;SDS011;2330;48.158;11.816;2023-06-19T09:15:13;13.77;;;5.10;;
4634;SDS011;2330;48.158;11.816;2023-06-19T09:17:41;7.83;;;4.90;;
4634;SDS011;2330;48.158;11.816;2023-06-19T09:20:08;19.93;;;6.13;;
4634;SDS011;2330;48.158;11.816;2023-06-19T09:22:35;5.30;;;4.77;;
4634;SDS011;2330;48.158;11.816;2023-06-19T09:25:04;6.50;;;5.27;;
4634;SDS011;2330;48.158;11.816;2023-06-19T09:27:32;8.13;;;5.97;;
4634;SDS011;2330;48.158;11.816;2023-06-19T09:30:00;5.77;;;5.37;;
4634;SDS011;2330;48.158;11.816;2023-06-19T09:32:27;6.90;;;5.50;;
4634;SDS011;2330;48.158;11.816;2023-06-19T09:34:55;8.00;;;5.03;;
4634;SDS011;2330;48.158;11.816;2023-06-19T09:37:25;5.30;;;4.80;;
4634;SDS011;2330;48.158;11.816;2023-06-19T09:39:56;4.70;;;4.03;;
4634;SDS011;2330;48.158;11.816;2023-06-19T09:42:28;5.40;;;4.20;;
4634;SDS011;2330;48.158;11.816;2023-06-19T09:45:00;8.53;;;4.30;;
4634;SDS011;2330;48.158;11.816;2023-06-19T09:47:31;4.77;;;2.67;;
4634;SDS011;2330;48.158;11.816;2023-06-19T09:50:03;4.90;;;3.20;;
4634;SDS011;2330;48.158;11.816;2023-06-19T09:52:30;4.27;;;3.00;;
4634;SDS011;2330;48.158;11.816;2023-06-19T09:54:57;4.77;;;3.53;;
4634;SDS011;2330;48.158;11.816;2023-06-19T09:57:29;7.87;;;4.03;;
4634;SDS011;2330;48.158;11.816;2023-06-19T09:59:56;5.33;;;3.20;;
4634;SDS011;2330;48.158;11.816;2023-06-19T10:02:27;3.97;;;3.67;;
4634;SDS011;2330;48.158;11.816;2023-06-19T10:04:55;8.83;;;3.70;;
4634;SDS011;2330;48.158;11.816;2023-06-19T10:07:23;12.93;;;4.47;;
4634;SDS011;2330;48.158;11.816;2023-06-19T10:10:04;4.07;;;3.10;;
4634;SDS011;2330;48.158;11.816;2023-06-19T10:15:10;3.80;;;3.00;;
4634;SDS011;2330;48.158;11.816;2023-06-19T10:20:26;3.47;;;3.17;;
4634;SDS011;2330;48.158;11.816;2023-06-19T10:25:33;2.70;;;2.50;;
4634;SDS011;2330;48.158;11.816;2023-06-19T10:28:02;13.70;;;3.37;;
4634;SDS011;2330;48.158;11.816;2023-06-19T10:30:32;5.10;;;2.20;;
4634;SDS011;2330;48.158;11.816;2023-06-19T10:33:00;8.77;;;3.30;;
4634;SDS011;2330;48.158;11.816;2023-06-19T10:35:36;2.60;;;2.40;;
4634;SDS011;2330;48.158;11.816;2023-06-19T10:38:07;2.97;;;2.77;;
4634;SDS011;2330;48.158;11.816;2023-06-19T10:40:36;3.10;;;2.37;;
4634;SDS011;2330;48.158;11.816;2023-06-19T10:43:03;4.00;;;2.30;;
4634;SDS011;2330;48.158;11.816;2023-06-19T10:45:30;2.80;;;2.60;;
4634;SDS011;2330;48.158;11.816;2023-06-19T10:48:00;2.87;;;2.03;;
4634;SDS011;2330;48.158;11.816;2023-06-19T10:50:33;4.57;;;2.50;;
4634;SDS011;2330;48.158;11.816;2023-06-19T10:53:03;1.70;;;1.60;;
4634;SDS011;2330;48.158;11.816;2023-06-19T10:55:30;2.27;;;2.17;;
4634;SDS011;2330;48.158;11.816;2023-06-19T10:58:01;4.47;;;2.97;;
4634;SDS011;2330;48.158;11.816;2023-06-19T11:00:30;2.67;;;2.47;;
4634;SDS011;2330;48.158;11.816;2023-06-19T11:02:59;14.63;;;3.70;;
4634;SDS011;2330;48.158;11.816;2023-06-19T11:05:26;5.63;;;2.73;;
4634;SDS011;2330;48.158;11.816;2023-06-19T11:07:55;2.00;;;1.90;;
4634;SDS011;2330;48.158;11.816;2023-06-19T11:10:27;2.30;;;1.97;;
4634;SDS011;2330;48.158;11.816;2023-06-19T11:12:56;7.47;;;2.50;;
4634;SDS011;2330;48.158;11.816;2023-06-19T11:15:31;10.63;;;3.33;;
4634;SDS011;2330;48.158;11.816;2023-06-19T11:17:59;2.60;;;2.40;;
4634;SDS011;2330;48.158;11.816;2023-06-19T11:20:27;4.73;;;3.07;;
4634;SDS011;2330;48.158;11.816;2023-06-19T11:22:58;2.50;;;2.30;;
4634;SDS011;2330;48.158;11.816;2023-06-19T11:25:36;2.63;;;2.43;;
4634;SDS011;2330;48.158;11.816;2023-06-19T11:28:04;9.17;;;3.30;;
4634;SDS011;2330;48.158;11.816;2023-06-19T11:30:40;7.07;;;3.27;;
4634;SDS011;2330;48.158;11.816;2023-06-19T11:33:19;3.30;;;3.00;;
4634;SDS011;2330;48.158;11.816;2023-06-19T11:35:52;4.00;;;3.10;;
4634;SDS011;2330;48.158;11.816;2023-06-19T11:38:24;2.90;;;2.70;;
4634;SDS011;2330;48.158;11.816;2023-06-19T11:40:55;3.83;;;3.47;;
4634;SDS011;2330;48.158;11.816;2023-06-19T11:43:26;3.17;;;2.97;;
4634;SDS011;2330;48.158;11.816;2023-06-19T11:46:19;3.40;;;3.10;;
4634;SDS011;2330;48.158;11.816;2023-06-19T11:48:42;3.63;;;3.30;;
4634;SDS011;2330;48.158;11.816;2023-06-19T11:51:31;3.47;;;3.10;;
4634;SDS011;2330;48.158;11.816;2023-06-19T11:53:58;3.73;;;3.43;;
4634;SDS011;2330;48.158;11.816;2023-06-19T11:56:25;5.77;;;3.67;;
4634;SDS011;2330;48.158;11.816;2023-06-19T11:58:52;4.40;;;2.80;;
4634;SDS011;2330;48.158;11.816;2023-06-19T12:01:19;3.00;;;2.80;;
4634;SDS011;2330;48.158;11.816;2023-06-19T12:03:47;3.40;;;3.10;;
4634;SDS011;2330;48.158;11.816;2023-06-19T12:06:15;3.60;;;3.30;;
4634;SDS011;2330;48.158;11.816;2023-06-19T12:08:44;3.97;;;3.57;;
4634;SDS011;2330;48.158;11.816;2023-06-19T12:11:10;3.33;;;3.13;;
4634;SDS011;2330;48.158;11.816;2023-06-19T12:13:40;3.60;;;3.30;;
4634;SDS011;2330;48.158;11.816;2023-06-19T12:16:10;3.50;;;3.20;;
4634;SDS011;2330;48.158;11.816;2023-06-19T12:18:40;3.50;;;3.20;;
4634;SDS011;2330;48.158;11.816;2023-06-19T12:21:07;3.27;;;3.07;;
4634;SDS011;2330;48.158;11.816;2023-06-19T12:23:50;3.73;;;3.43;;
4634;SDS011;2330;48.158;11.816;2023-06-19T12:26:17;4.00;;;3.70;;
4634;SDS011;2330;48.158;11.816;2023-06-19T12:28:44;6.20;;;3.50;;
4634;SDS011;2330;48.158;11.816;2023-06-19T12:31:11;4.03;;;3.63;;
4634;SDS011;2330;48.158;11.816;2023-06-19T12:33:38;4.20;;;3.63;;
4634;SDS011;2330;48.158;11.816;2023-06-19T12:36:17;4.80;;;3.37;;
4634;SDS011;2330;48.158;11.816;2023-06-19T12:38:52;4.27;;;3.87;;
4634;SDS011;2330;48.158;11.816;2023-06-19T12:41:23;3.87;;;3.57;;
4634;SDS011;2330;48.158;11.816;2023-06-19T12:43:49;3.73;;;3.43;;
4634;SDS011;2330;48.158;11.816;2023-06-19T12:46:17;4.23;;;3.83;;
4634;SDS011;2330;48.158;11.816;2023-06-19T12:48:43;3.60;;;3.30;;
4634;SDS011;2330;48.158;11.816;2023-06-19T12:51:11;5.40;;;3.93;;
4634;SDS011;2330;48.158;11.816;2023-06-19T12:53:37;5.07;;;3.60;;
4634;SDS011;2330;48.158;11.816;2023-06-19T12:56:06;5.83;;;3.63;;
4634;SDS011;2330;48.158;11.816;2023-06-19T12:58:44;3.77;;;3.47;;
4634;SDS011;2330;48.158;11.816;2023-06-19T13:01:11;4.17;;;2.93;;
4634;SDS011;2330;48.158;11.816;2023-06-19T13:03:38;8.87;;;3.80;;
4634;SDS011;2330;48.158;11.816;2023-06-19T13:06:05;4.90;;;3.20;;
4634;SDS011;2330;48.158;11.816;2023-06-19T13:08:33;4.00;;;3.67;;
4634;SDS011;2330;48.158;11.816;2023-06-19T13:11:00;4.03;;;3.57;;
4634;SDS011;2330;48.158;11.816;2023-06-19T13:13:29;3.50;;;3.30;;
4634;SDS011;2330;48.158;11.816;2023-06-19T13:15:56;4.67;;;3.93;;
4634;SDS011;2330;48.158;11.816;2023-06-19T13:18:23;3.70;;;3.40;;
4634;SDS011;2330;48.158;11.816;2023-06-19T13:20:50;6.27;;;4.10;;
4634;SDS011;2330;48.158;11.816;2023-06-19T13:23:17;3.60;;;3.40;;
4634;SDS011;2330;48.158;11.816;2023-06-19T13:25:44;6.83;;;3.67;;
4634;SDS011;2330;48.158;11.816;2023-06-19T13:28:11;4.47;;;3.93;;
4634;SDS011;2330;48.158;11.816;2023-06-19T13:30:37;3.70;;;3.30;;
4634;SDS011;2330;48.158;11.816;2023-06-19T13:33:04;7.97;;;4.30;;
4634;SDS011;2330;48.158;11.816;2023-06-19T13:35:31;3.47;;;3.27;;
4634;SDS011;2330;48.158;11.816;2023-06-19T13:37:58;8.33;;;3.93;;
4634;SDS011;2330;48.158;11.816;2023-06-19T13:40:26;6.00;;;3.70;;
4634;SDS011;2330;48.158;11.816;2023-06-19T13:42:52;3.80;;;3.50;;
4634;SDS011;2330;48.158;11.816;2023-06-19T13:45:20;5.00;;;3.30;;
4634;SDS011;2330;48.158;11.816;2023-06-19T13:47:48;5.33;;;3.97;;
4634;SDS011;2330;48.158;11.816;2023-06-19T13:50:15;4.83;;;3.90;;
4634;SDS011;2330;48.158;11.816;2023-06-19T13:52:45;4.07;;;3.77;;
4634;SDS011;2330;48.158;11.816;2023-06-19T13:55:12;3.40;;;3.10;;
4634;SDS011;2330;48.158;11.816;2023-06-19T13:57:41;3.90;;;3.60;;
4634;SDS011;2330;48.158;11.816;2023-06-19T14:00:09;4.50;;;4.10;;
4634;SDS011;2330;48.158;11.816;2023-06-19T14:02:38;4.20;;;3.83;;
4634;SDS011;2330;48.158;11.816;2023-06-19T14:05:05;3.70;;;3.40;;
4634;SDS011;2330;48.158;11.816;2023-06-19T14:07:33;3.70;;;3.50;;
4634;SDS011;2330;48.158;11.816;2023-06-19T14:10:02;5.53;;;4.23;;
4634;SDS011;2330;48.158;11.816;2023-06-19T14:12:32;4.33;;;3.70;;
4634;SDS011;2330;48.158;11.816;2023-06-19T14:14:59;4.50;;;3.67;;
4634;SDS011;2330;48.158;11.816;2023-06-19T14:17:26;4.13;;;3.83;;
4634;SDS011;2330;48.158;11.816;2023-06-19T14:19:55;5.33;;;3.83;;
4634;SDS011;2330;48.158;11.816;2023-06-19T14:22:23;3.93;;;3.63;;
4634;SDS011;2330;48.158;11.816;2023-06-19T14:24:50;4.73;;;3.80;;
4634;SDS011;2330;48.158;11.816;2023-06-19T14:27:17;4.03;;;3.37;;
4634;SDS011;2330;48.158;11.816;2023-06-19T14:29:45;4.50;;;3.60;;
4634;SDS011;2330;48.158;11.816;2023-06-19T14:32:12;3.90;;;3.60;;
4634;SDS011;2330;48.158;11.816;2023-06-19T14:34:39;3.77;;;3.57;;
4634;SDS011;2330;48.158;11.816;2023-06-19T14:37:07;8.30;;;4.07;;
4634;SDS011;2330;48.158;11.816;2023-06-19T14:39:34;4.53;;;3.63;;
4634;SDS011;2330;48.158;11.816;2023-06-19T14:42:01;3.77;;;3.47;;
4634;SDS011;2330;48.158;11.816;2023-06-19T14:44:28;4.63;;;4.07;;
4634;SDS011;2330;48.158;11.816;2023-06-19T14:46:55;5.80;;;3.50;;
4634;SDS011;2330;48.158;11.816;2023-06-19T14:49:22;4.20;;;3.90;;
4634;SDS011;2330;48.158;11.816;2023-06-19T14:51:49;3.97;;;3.67;;
4634;SDS011;2330;48.158;11.816;2023-06-19T14:54:16;4.23;;;3.83;;
4634;SDS011;2330;48.158;11.816;2023-06-19T14:56:44;5.77;;;4.30;;
4634;SDS011;2330;48.158;11.816;2023-06-19T14:59:14;4.20;;;3.77;;
4634;SDS011;2330;48.158;11.816;2023-06-19T15:01:42;4.47;;;4.07;;
4634;SDS011;2330;48.158;11.816;2023-06-19T15:04:10;4.33;;;3.93;;
4634;SDS011;2330;48.158;11.816;2023-06-19T15:06:37;3.73;;;3.43;;
4634;SDS011;2330;48.158;11.816;2023-06-19T15:09:07;6.90;;;4.20;;
4634;SDS011;2330;48.158;11.816;2023-06-19T15:11:34;8.27;;;3.40;;